sensor_id;sensor_type;location;lat;lon;timestamp;P1;durP1;ratioP1;P2;durP2;ratioP2
34146;SDS011;20423;49.448;9.056;2024-01-06T00:02:00;5.2;;;4.2;;
34146;SDS011;20423;49.448;9.056;2024-01-06T00:06:54;7.3;;;5;;
34146;SDS011;20423;49.448;9.056;2024-01-06T00:11:42;5.2;;;3.8;;
34146;SDS011;20423;49.448;9.056;2024-01-06T00:17:20;5;;;4.4;;
34146;SDS011;20423;49.448;9.056;2024-01-06T00:21:40;5.4;;;4.2;;
34146;SDS011;20423;49.448;9.056;2024-01-06T00:26:42;3.9;;;3;;
34146;SDS011;20423;49.448;9.056;2024-01-06T00:32:22;6.9;;;4.9;;
34146;SDS011;20423;49.448;9.056;2024-01-06T00:37:30;3.8;;;3.3;;
34146;SDS011;20423;49.448;9.056;2024-01-06T00:41:58;3.3;;;2.2;;
34146;SDS011;20423;49.448;9.056;2024-01-06T00:46:48;3.2;;;2.6;;
34146;SDS011;20423;49.448;9.056;2024-01-06T00:51:58;3.2;;;2.6;;
34146;SDS011;20423;49.448;9.056;2024-01-06T00:56:40;3.9;;;2.9;;
34146;SDS011;20423;49.448;9.056;2024-01-06T01:01:40;2.4;;;2.3;;
34146;SDS011;20423;49.448;9.056;2024-01-06T01:07:18;2.7;;;2.4;;
34146;SDS011;20423;49.448;9.056;2024-01-06T01:12:32;4.5;;;3.2;;
34146;SDS011;20423;49.448;9.056;2024-01-06T01:17:32;3;;;2.3;;
34146;SDS011;20423;49.448;9.056;2024-01-06T01:21:40;1.9;;;0.9;;
34146;SDS011;20423;49.448;9.056;2024-01-06T01:27:32;1.3;;;0.8;;
34146;SDS011;20423;49.448;9.056;2024-01-06T01:31:50;1.5;;;1;;
34146;SDS011;20423;49.448;9.056;2024-01-06T01:36:48;1.6;;;1;;
34146;SDS011;20423;49.448;9.056;2024-01-06T01:42:08;1.5;;;0.8;;
34146;SDS011;20423;49.448;9.056;2024-01-06T01:47:10;2.1;;;1.2;;
34146;SDS011;20423;49.448;9.056;2024-01-06T01:52:22;2.6;;;1.9;;
34146;SDS011;20423;49.448;9.056;2024-01-06T01:57:16;1.8;;;0.9;;
34146;SDS011;20423;49.448;9.056;2024-01-06T02:02:28;1.1;;;0.4;;
34146;SDS011;20423;49.448;9.056;2024-01-06T02:06:52;1.5;;;0.4;;
34146;SDS011;20423;49.448;9.056;2024-01-06T02:12:30;1.4;;;0.7;;
34146;SDS011;20423;49.448;9.056;2024-01-06T02:16:40;1.2;;;0.6;;
34146;SDS011;20423;49.448;9.056;2024-01-06T02:22:30;0.8;;;0.7;;
34146;SDS011;20423;49.448;9.056;2024-01-06T02:27:22;1.5;;;0.6;;
34146;SDS011;20423;49.448;9.056;2024-01-06T02:32:16;1.8;;;0.8;;
34146;SDS011;20423;49.448;9.056;2024-01-06T02:36:48;1.2;;;0.8;;
34146;SDS011;20423;49.448;9.056;2024-01-06T02:41:40;1.1;;;0.5;;
34146;SDS011;20423;49.448;9.056;2024-01-06T02:47:32;2;;;0.8;;
34146;SDS011;20423;49.448;9.056;2024-01-06T02:52:08;2.5;;;0.8;;
34146;SDS011;20423;49.448;9.056;2024-01-06T02:56:58;1.9;;;0.9;;
34146;SDS011;20423;49.448;9.056;2024-01-06T03:02:30;1.1;;;0.7;;
34146;SDS011;20423;49.448;9.056;2024-01-06T03:07:28;1.9;;;0.7;;
34146;SDS011;20423;49.448;9.056;2024-01-06T03:11:42;1.6;;;1.3;;
34146;SDS011;20423;49.448;9.056;2024-01-06T03:16:48;0.8;;;0.5;;
34146;SDS011;20423;49.448;9.056;2024-01-06T03:21:42;1.7;;;0.9;;
34146;SDS011;20423;49.448;9.056;2024-01-06T03:27:08;1.3;;;0.5;;
34146;SDS011;20423;49.448;9.056;2024-01-06T03:31:41;0.9;;;0.5;;
34146;SDS011;20423;49.448;9.056;2024-01-06T03:36:40;1.3;;;0.9;;
34146;SDS011;20423;49.448;9.056;2024-01-06T03:42:32;1.4;;;0.7;;
34146;SDS011;20423;49.448;9.056;2024-01-06T03:46:52;2;;;1.8;;
34146;SDS011;20423;49.448;9.056;2024-01-06T03:52:16;1.9;;;1;;
34146;SDS011;20423;49.448;9.056;2024-01-06T03:57:30;1.3;;;1.3;;
34146;SDS011;20423;49.448;9.056;2024-01-06T04:02:18;3.3;;;2.4;;
34146;SDS011;20423;49.448;9.056;2024-01-06T04:06:50;6.3;;;4.9;;
34146;SDS011;20423;49.448;9.056;2024-01-06T04:11:56;2.5;;;1.9;;
34146;SDS011;20423;49.448;9.056;2024-01-06T04:16:48;2.5;;;1.8;;
34146;SDS011;20423;49.448;9.056;2024-01-06T04:21:46;3.8;;;3.2;;
34146;SDS011;20423;49.448;9.056;2024-01-06T04:27:00;4.1;;;2.8;;
34146;SDS011;20423;49.448;9.056;2024-01-06T04:32:30;5.9;;;4.2;;
34146;SDS011;20423;49.448;9.056;2024-01-06T04:37:10;6.1;;;4;;
34146;SDS011;20423;49.448;9.056;2024-01-06T04:42:18;5.2;;;4.1;;
34146;SDS011;20423;49.448;9.056;2024-01-06T04:46:56;5.1;;;4;;
34146;SDS011;20423;49.448;9.056;2024-01-06T04:51:48;6.2;;;5.6;;
34146;SDS011;20423;49.448;9.056;2024-01-06T04:56:40;5.4;;;4.1;;
34146;SDS011;20423;49.448;9.056;2024-01-06T05:02:08;14;;;11.6;;
34146;SDS011;20423;49.448;9.056;2024-01-06T05:06:46;29.3;;;23.3;;
34146;SDS011;20423;49.448;9.056;2024-01-06T05:12:10;10.4;;;7.7;;
34146;SDS011;20423;49.448;9.056;2024-01-06T05:16:42;12;;;9.3;;
34146;SDS011;20423;49.448;9.056;2024-01-06T05:22:00;5.9;;;5.2;;
34146;SDS011;20423;49.448;9.056;2024-01-06T05:26:40;5.7;;;3.9;;
34146;SDS011;20423;49.448;9.056;2024-01-06T05:32:30;5.8;;;4.8;;
34146;SDS011;20423;49.448;9.056;2024-01-06T05:37:28;7;;;4.8;;
34146;SDS011;20423;49.448;9.056;2024-01-06T05:42:02;5.1;;;4.2;;
34146;SDS011;20423;49.448;9.056;2024-01-06T05:47:06;5.1;;;4.1;;
34146;SDS011;20423;49.448;9.056;2024-01-06T05:52:32;5.4;;;4.7;;
34146;SDS011;20423;49.448;9.056;2024-01-06T05:57:20;7.8;;;6.5;;
34146;SDS011;20423;49.448;9.056;2024-01-06T06:01:56;4.9;;;3.3;;
34146;SDS011;20423;49.448;9.056;2024-01-06T06:07:18;5.1;;;4.2;;
34146;SDS011;20423;49.448;9.056;2024-01-06T06:12:10;5.4;;;3.5;;
34146;SDS011;20423;49.448;9.056;2024-01-06T06:17:20;4.9;;;3.4;;
34146;SDS011;20423;49.448;9.056;2024-01-06T06:21:56;4.6;;;3.2;;
34146;SDS011;20423;49.448;9.056;2024-01-06T06:27:30;5.1;;;4.1;;
34146;SDS011;20423;49.448;9.056;2024-01-06T06:31:50;6;;;4.3;;
34146;SDS011;20423;49.448;9.056;2024-01-06T06:37:33;6.1;;;4.2;;
34146;SDS011;20423;49.448;9.056;2024-01-06T06:41:46;5.9;;;4.5;;
34146;SDS011;20423;49.448;9.056;2024-01-06T06:47:26;16.5;;;11.7;;
34146;SDS011;20423;49.448;9.056;2024-01-06T06:51:50;15.2;;;12.4;;
34146;SDS011;20423;49.448;9.056;2024-01-06T06:57:18;10.1;;;7.8;;
34146;SDS011;20423;49.448;9.056;2024-01-06T07:01:40;7.6;;;5.4;;
34146;SDS011;20423;49.448;9.056;2024-01-06T07:06:58;6.2;;;4.4;;
34146;SDS011;20423;49.448;9.056;2024-01-06T07:12:30;8.3;;;7.1;;
34146;SDS011;20423;49.448;9.056;2024-01-06T07:17:08;9.1;;;7.9;;
34146;SDS011;20423;49.448;9.056;2024-01-06T07:21:58;7.4;;;5.2;;
34146;SDS011;20423;49.448;9.056;2024-01-06T07:27:30;5.4;;;4.5;;
34146;SDS011;20423;49.448;9.056;2024-01-06T07:31:48;13.3;;;11.8;;
34146;SDS011;20423;49.448;9.056;2024-01-06T07:36:46;13.3;;;10.5;;
34146;SDS011;20423;49.448;9.056;2024-01-06T07:41:46;11.3;;;8.6;;
34146;SDS011;20423;49.448;9.056;2024-01-06T07:47:20;10.4;;;8.6;;
34146;SDS011;20423;49.448;9.056;2024-01-06T07:52:18;7.2;;;5.8;;
34146;SDS011;20423;49.448;9.056;2024-01-06T07:56:56;6.1;;;4.4;;
34146;SDS011;20423;49.448;9.056;2024-01-06T08:01:56;5.5;;;3.8;;
34146;SDS011;20423;49.448;9.056;2024-01-06T08:07:26;6.4;;;5.1;;
34146;SDS011;20423;49.448;9.056;2024-01-06T08:12:18;6.7;;;5.4;;
34146;SDS011;20423;49.448;9.056;2024-01-06T08:16:56;5.2;;;4.5;;
34146;SDS011;20423;49.448;9.056;2024-01-06T08:22:18;5.1;;;3.9;;
34146;SDS011;20423;49.448;9.056;2024-01-06T08:27:30;6.1;;;4.3;;
34146;SDS011;20423;49.448;9.056;2024-01-06T08:31:40;6.5;;;3.8;;
34146;SDS011;20423;49.448;9.056;2024-01-06T08:36:40;8.5;;;6.6;;
34146;SDS011;20423;49.448;9.056;2024-01-06T08:41:48;8.5;;;6.3;;
34146;SDS011;20423;49.448;9.056;2024-01-06T08:46:46;13;;;10.4;;
34146;SDS011;20423;49.448;9.056;2024-01-06T08:51:40;11.7;;;8.9;;
34146;SDS011;20423;49.448;9.056;2024-01-06T08:57:30;15.5;;;12.9;;
34146;SDS011;20423;49.448;9.056;2024-01-06T09:02:06;9.7;;;7.6;;
34146;SDS011;20423;49.448;9.056;2024-01-06T09:07:30;7.7;;;6;;
34146;SDS011;20423;49.448;9.056;2024-01-06T09:11:54;8.5;;;7.7;;
34146;SDS011;20423;49.448;9.056;2024-01-06T09:16:46;10.9;;;7.7;;
34146;SDS011;20423;49.448;9.056;2024-01-06T09:21:40;9.4;;;7.7;;
34146;SDS011;20423;49.448;9.056;2024-01-06T09:26:40;12.5;;;9.7;;
34146;SDS011;20423;49.448;9.056;2024-01-06T09:32:02;14.4;;;11.3;;
34146;SDS011;20423;49.448;9.056;2024-01-06T09:36:48;11.3;;;9.8;;
34146;SDS011;20423;49.448;9.056;2024-01-06T09:42:06;8.2;;;6.8;;
34146;SDS011;20423;49.448;9.056;2024-01-06T09:47:10;9.2;;;7.3;;
34146;SDS011;20423;49.448;9.056;2024-01-06T09:51:40;7.1;;;5.9;;
34146;SDS011;20423;49.448;9.056;2024-01-06T09:57:26;7.2;;;5.6;;
34146;SDS011;20423;49.448;9.056;2024-01-06T10:02:28;13.2;;;10.4;;
34146;SDS011;20423;49.448;9.056;2024-01-06T10:06:48;19.2;;;16;;
34146;SDS011;20423;49.448;9.056;2024-01-06T10:11:42;18;;;14.5;;
34146;SDS011;20423;49.448;9.056;2024-01-06T10:17:28;16.2;;;13.7;;
34146;SDS011;20423;49.448;9.056;2024-01-06T10:21:48;10.4;;;8.5;;
34146;SDS011;20423;49.448;9.056;2024-01-06T10:26:40;8.6;;;7.2;;
34146;SDS011;20423;49.448;9.056;2024-01-06T10:32:18;9.6;;;7.6;;
34146;SDS011;20423;49.448;9.056;2024-01-06T10:37:06;9.7;;;6.7;;
34146;SDS011;20423;49.448;9.056;2024-01-06T10:42:18;9.2;;;7.5;;
34146;SDS011;20423;49.448;9.056;2024-01-06T10:47:18;9.5;;;7.3;;
34146;SDS011;20423;49.448;9.056;2024-01-06T10:52:27;11.4;;;9.6;;
34146;SDS011;20423;49.448;9.056;2024-01-06T10:56:41;11.4;;;9.2;;
34146;SDS011;20423;49.448;9.056;2024-01-06T11:02:18;15.1;;;11.4;;
34146;SDS011;20423;49.448;9.056;2024-01-06T11:06:40;28;;;24.4;;
34146;SDS011;20423;49.448;9.056;2024-01-06T11:12:28;24.4;;;20.2;;
34146;SDS011;20423;49.448;9.056;2024-01-06T11:17:10;19.2;;;16.1;;
34146;SDS011;20423;49.448;9.056;2024-01-06T11:21:42;23;;;19.6;;
34146;SDS011;20423;49.448;9.056;2024-01-06T11:26:41;17.8;;;14.7;;
34146;SDS011;20423;49.448;9.056;2024-01-06T11:32:17;12.5;;;9.3;;
34146;SDS011;20423;49.448;9.056;2024-01-06T11:37:34;15.8;;;12.8;;
34146;SDS011;20423;49.448;9.056;2024-01-06T11:41:48;24.5;;;20.1;;
34146;SDS011;20423;49.448;9.056;2024-01-06T11:46:58;54.5;;;43;;
34146;SDS011;20423;49.448;9.056;2024-01-06T11:52:28;61.4;;;46.8;;
34146;SDS011;20423;49.448;9.056;2024-01-06T11:57:29;48.6;;;39.8;;
34146;SDS011;20423;49.448;9.056;2024-01-06T12:02:18;36.1;;;27.5;;
34146;SDS011;20423;49.448;9.056;2024-01-06T12:07:09;34.1;;;24.7;;
34146;SDS011;20423;49.448;9.056;2024-01-06T12:12:28;26.9;;;21.9;;
34146;SDS011;20423;49.448;9.056;2024-01-06T12:17:11;19;;;16.3;;
34146;SDS011;20423;49.448;9.056;2024-01-06T12:22:28;14.6;;;12.3;;
34146;SDS011;20423;49.448;9.056;2024-01-06T12:26:40;12.5;;;9.3;;
34146;SDS011;20423;49.448;9.056;2024-01-06T12:31:42;12.8;;;10.6;;
34146;SDS011;20423;49.448;9.056;2024-01-06T12:37:30;12.8;;;10.9;;
34146;SDS011;20423;49.448;9.056;2024-01-06T12:41:40;16.1;;;13;;
34146;SDS011;20423;49.448;9.056;2024-01-06T12:47:18;19.8;;;16.5;;
34146;SDS011;20423;49.448;9.056;2024-01-06T12:52:20;16.9;;;13.9;;
34146;SDS011;20423;49.448;9.056;2024-01-06T12:56:40;14.3;;;11.9;;
34146;SDS011;20423;49.448;9.056;2024-01-06T13:02:30;19.4;;;16.2;;
34146;SDS011;20423;49.448;9.056;2024-01-06T13:07:10;17.8;;;15;;
34146;SDS011;20423;49.448;9.056;2024-01-06T13:12:30;22.9;;;18.9;;
34146;SDS011;20423;49.448;9.056;2024-01-06T13:16:58;27;;;22.8;;
34146;SDS011;20423;49.448;9.056;2024-01-06T13:22:08;30.7;;;25.7;;
34146;SDS011;20423;49.448;9.056;2024-01-06T13:27:26;33.2;;;28.5;;
34146;SDS011;20423;49.448;9.056;2024-01-06T13:31:56;39.1;;;33.5;;
34146;SDS011;20423;49.448;9.056;2024-01-06T13:37:26;34.6;;;30.6;;
34146;SDS011;20423;49.448;9.056;2024-01-06T13:41:46;45.6;;;39.1;;
34146;SDS011;20423;49.448;9.056;2024-01-06T13:46:48;28.6;;;23.2;;
34146;SDS011;20423;49.448;9.056;2024-01-06T13:52:30;33.8;;;28.8;;
34146;SDS011;20423;49.448;9.056;2024-01-06T13:56:42;39.1;;;33.2;;
34146;SDS011;20423;49.448;9.056;2024-01-06T14:02:20;44.5;;;37.7;;
34146;SDS011;20423;49.448;9.056;2024-01-06T14:06:46;38.3;;;32.9;;
34146;SDS011;20423;49.448;9.056;2024-01-06T14:11:50;33.6;;;28.6;;
34146;SDS011;20423;49.448;9.056;2024-01-06T14:17:30;33.6;;;29.4;;
34146;SDS011;20423;49.448;9.056;2024-01-06T14:22:33;35.2;;;30.1;;
34146;SDS011;20423;49.448;9.056;2024-01-06T14:27:32;59.3;;;46.6;;
34146;SDS011;20423;49.448;9.056;2024-01-06T14:32:08;51.2;;;41.6;;
34146;SDS011;20423;49.448;9.056;2024-01-06T14:36:40;46.8;;;38.7;;
34146;SDS011;20423;49.448;9.056;2024-01-06T14:42:30;62.3;;;49.6;;
34146;SDS011;20423;49.448;9.056;2024-01-06T14:47:30;78.7;;;59.5;;
34146;SDS011;20423;49.448;9.056;2024-01-06T14:52:32;76.2;;;58.1;;
34146;SDS011;20423;49.448;9.056;2024-01-06T14:57:32;53.7;;;43;;
34146;SDS011;20423;49.448;9.056;2024-01-06T15:02:32;37.1;;;29.4;;
34146;SDS011;20423;49.448;9.056;2024-01-06T15:07:08;44.9;;;36.5;;
34146;SDS011;20423;49.448;9.056;2024-01-06T15:11:56;46.5;;;37.4;;
34146;SDS011;20423;49.448;9.056;2024-01-06T15:16:56;49.5;;;39;;
34146;SDS011;20423;49.448;9.056;2024-01-06T15:21:46;37.7;;;30.7;;
34146;SDS011;20423;49.448;9.056;2024-01-06T15:26:40;25.4;;;22.5;;
34146;SDS011;20423;49.448;9.056;2024-01-06T15:32:12;36.9;;;30.9;;
34146;SDS011;20423;49.448;9.056;2024-01-06T15:37:08;29.6;;;25.6;;
34146;SDS011;20423;49.448;9.056;2024-01-06T15:42:08;30.2;;;25.3;;
34146;SDS011;20423;49.448;9.056;2024-01-06T15:47:32;28.2;;;23;;
34146;SDS011;20423;49.448;9.056;2024-01-06T15:52:08;21.5;;;17.6;;
34146;SDS011;20423;49.448;9.056;2024-01-06T15:57:10;20.1;;;16.5;;
34146;SDS011;20423;49.448;9.056;2024-01-06T16:01:40;17.4;;;14.2;;
34146;SDS011;20423;49.448;9.056;2024-01-06T16:06:40;16.7;;;14;;
34146;SDS011;20423;49.448;9.056;2024-01-06T16:11:40;20.5;;;16.7;;
34146;SDS011;20423;49.448;9.056;2024-01-06T16:16:56;24.7;;;21.2;;
34146;SDS011;20423;49.448;9.056;2024-01-06T16:22:32;21.4;;;17.8;;
34146;SDS011;20423;49.448;9.056;2024-01-06T16:27:00;22.8;;;20.3;;
34146;SDS011;20423;49.448;9.056;2024-01-06T16:31:50;24.5;;;20.3;;
34146;SDS011;20423;49.448;9.056;2024-01-06T16:37:32;22.6;;;19;;
34146;SDS011;20423;49.448;9.056;2024-01-06T16:42:32;21.4;;;17;;
34146;SDS011;20423;49.448;9.056;2024-01-06T16:47:00;16.7;;;14;;
34146;SDS011;20423;49.448;9.056;2024-01-06T16:51:56;15.5;;;13.1;;
34146;SDS011;20423;49.448;9.056;2024-01-06T16:56:40;11.8;;;9.1;;
34146;SDS011;20423;49.448;9.056;2024-01-06T17:02:00;11.6;;;8.3;;
34146;SDS011;20423;49.448;9.056;2024-01-06T17:07:16;11.3;;;9.3;;
34146;SDS011;20423;49.448;9.056;2024-01-06T17:12:30;33.8;;;27.6;;
34146;SDS011;20423;49.448;9.056;2024-01-06T17:17:06;38.4;;;31.4;;
34146;SDS011;20423;49.448;9.056;2024-01-06T17:22:10;42.9;;;34.4;;
34146;SDS011;20423;49.448;9.056;2024-01-06T17:27:32;68.7;;;51.8;;
34146;SDS011;20423;49.448;9.056;2024-01-06T17:32:02;65.7;;;49.4;;
34146;SDS011;20423;49.448;9.056;2024-01-06T17:37:14;50.2;;;38.5;;
34146;SDS011;20423;49.448;9.056;2024-01-06T17:42:10;35.4;;;26.3;;
34146;SDS011;20423;49.448;9.056;2024-01-06T17:46:40;37.3;;;29.7;;
34146;SDS011;20423;49.448;9.056;2024-01-06T17:51:48;30.7;;;24.1;;
34146;SDS011;20423;49.448;9.056;2024-01-06T17:56:40;29.3;;;23.9;;
34146;SDS011;20423;49.448;9.056;2024-01-06T18:02:32;28.1;;;23.6;;
34146;SDS011;20423;49.448;9.056;2024-01-06T18:07:08;33.4;;;26.7;;
34146;SDS011;20423;49.448;9.056;2024-01-06T18:11:42;25.2;;;21;;
34146;SDS011;20423;49.448;9.056;2024-01-06T18:17:32;18.6;;;15.3;;
34146;SDS011;20423;49.448;9.056;2024-01-06T18:22:10;19.2;;;16.2;;
34146;SDS011;20423;49.448;9.056;2024-01-06T18:27:10;24.1;;;19.9;;
34146;SDS011;20423;49.448;9.056;2024-01-06T18:31:56;30.6;;;25.4;;
34146;SDS011;20423;49.448;9.056;2024-01-06T18:36:48;35.9;;;30.2;;
34146;SDS011;20423;49.448;9.056;2024-01-06T18:41:40;29.6;;;24.2;;
34146;SDS011;20423;49.448;9.056;2024-01-06T18:46:48;27;;;20.6;;
34146;SDS011;20423;49.448;9.056;2024-01-06T18:52:30;27.1;;;22.5;;
34146;SDS011;20423;49.448;9.056;2024-01-06T18:57:00;27.1;;;22.5;;
34146;SDS011;20423;49.448;9.056;2024-01-06T19:02:10;48.1;;;37.5;;
34146;SDS011;20423;49.448;9.056;2024-01-06T19:07:32;52.6;;;41.7;;
34146;SDS011;20423;49.448;9.056;2024-01-06T19:11:57;58.2;;;44.8;;
34146;SDS011;20423;49.448;9.056;2024-01-06T19:17:32;43.1;;;35.4;;
34146;SDS011;20423;49.448;9.056;2024-01-06T19:21:48;37.9;;;29;;
34146;SDS011;20423;49.448;9.056;2024-01-06T19:26:40;50.2;;;37.1;;
34146;SDS011;20423;49.448;9.056;2024-01-06T19:31:43;57.2;;;42.7;;
34146;SDS011;20423;49.448;9.056;2024-01-06T19:36:40;50.8;;;39.5;;
34146;SDS011;20423;49.448;9.056;2024-01-06T19:42:12;45.9;;;32.8;;
34146;SDS011;20423;49.448;9.056;2024-01-06T19:47:08;42.6;;;32.9;;
34146;SDS011;20423;49.448;9.056;2024-01-06T19:52:30;71.8;;;53.1;;
34146;SDS011;20423;49.448;9.056;2024-01-06T19:57:18;72.8;;;53.3;;
34146;SDS011;20423;49.448;9.056;2024-01-06T20:01:40;74.9;;;54.2;;
34146;SDS011;20423;49.448;9.056;2024-01-06T20:07:32;58.8;;;43.1;;
34146;SDS011;20423;49.448;9.056;2024-01-06T20:11:48;40.4;;;33.4;;
34146;SDS011;20423;49.448;9.056;2024-01-06T20:16:40;44.6;;;36.6;;
34146;SDS011;20423;49.448;9.056;2024-01-06T20:21:40;36.1;;;30.3;;
34146;SDS011;20423;49.448;9.056;2024-01-06T20:27:02;34;;;27.9;;
34146;SDS011;20423;49.448;9.056;2024-01-06T20:32:14;28.3;;;22.2;;
34146;SDS011;20423;49.448;9.056;2024-01-06T20:37:08;22.8;;;17.4;;
34146;SDS011;20423;49.448;9.056;2024-01-06T20:42:30;23.3;;;17.8;;
34146;SDS011;20423;49.448;9.056;2024-01-06T20:47:00;29.3;;;22.4;;
34146;SDS011;20423;49.448;9.056;2024-01-06T20:51:56;25.6;;;20.4;;
34146;SDS011;20423;49.448;9.056;2024-01-06T20:57:32;20.2;;;16.1;;
34146;SDS011;20423;49.448;9.056;2024-01-06T21:01:56;18.8;;;16.5;;
34146;SDS011;20423;49.448;9.056;2024-01-06T21:07:16;17.8;;;12.8;;
34146;SDS011;20423;49.448;9.056;2024-01-06T21:11:42;31.1;;;25.4;;
34146;SDS011;20423;49.448;9.056;2024-01-06T21:16:46;22.6;;;18.5;;
34146;SDS011;20423;49.448;9.056;2024-01-06T21:22:33;24;;;18.3;;
34146;SDS011;20423;49.448;9.056;2024-01-06T21:27:00;25.5;;;20.7;;
34146;SDS011;20423;49.448;9.056;2024-01-06T21:32:30;22.8;;;17.7;;
34146;SDS011;20423;49.448;9.056;2024-01-06T21:37:22;21.2;;;17.1;;
34146;SDS011;20423;49.448;9.056;2024-01-06T21:41:40;24.7;;;19.3;;
34146;SDS011;20423;49.448;9.056;2024-01-06T21:47:32;17.8;;;13.5;;
34146;SDS011;20423;49.448;9.056;2024-01-06T21:51:48;22;;;16;;
34146;SDS011;20423;49.448;9.056;2024-01-06T21:56:40;23.4;;;18.8;;
34146;SDS011;20423;49.448;9.056;2024-01-06T22:01:40;25.6;;;20;;
34146;SDS011;20423;49.448;9.056;2024-01-06T22:07:18;26.7;;;20.6;;
34146;SDS011;20423;49.448;9.056;2024-01-06T22:12:22;23.8;;;18.3;;
34146;SDS011;20423;49.448;9.056;2024-01-06T22:17:00;24.9;;;19.5;;
34146;SDS011;20423;49.448;9.056;2024-01-06T22:22:32;25.2;;;20.3;;
34146;SDS011;20423;49.448;9.056;2024-01-06T22:27:22;33;;;25.7;;
34146;SDS011;20423;49.448;9.056;2024-01-06T22:31:56;34.8;;;28.1;;
34146;SDS011;20423;49.448;9.056;2024-01-06T22:37:10;32.1;;;26.3;;
34146;SDS011;20423;49.448;9.056;2024-01-06T22:41:48;22.7;;;18.5;;
34146;SDS011;20423;49.448;9.056;2024-01-06T22:47:32;22.7;;;18.2;;
34146;SDS011;20423;49.448;9.056;2024-01-06T22:52:01;18.5;;;13.5;;
34146;SDS011;20423;49.448;9.056;2024-01-06T22:56:48;19.2;;;14.4;;
34146;SDS011;20423;49.448;9.056;2024-01-06T23:02:22;19.7;;;15.8;;
34146;SDS011;20423;49.448;9.056;2024-01-06T23:06:40;22.2;;;16.5;;
34146;SDS011;20423;49.448;9.056;2024-01-06T23:12:32;18.5;;;15.1;;
34146;SDS011;20423;49.448;9.056;2024-01-06T23:17:22;17.8;;;14.4;;
34146;SDS011;20423;49.448;9.056;2024-01-06T23:21:40;19.7;;;14.1;;
34146;SDS011;20423;49.448;9.056;2024-01-06T23:27:32;25.9;;;18.8;;
34146;SDS011;20423;49.448;9.056;2024-01-06T23:31:48;15.6;;;12.1;;
34146;SDS011;20423;49.448;9.056;2024-01-06T23:36:40;12.6;;;9.3;;
34146;SDS011;20423;49.448;9.056;2024-01-06T23:41:40;10.5;;;9.2;;
34146;SDS011;20423;49.448;9.056;2024-01-06T23:46:40;13.2;;;10.5;;
34146;SDS011;20423;49.448;9.056;2024-01-06T23:52:32;15;;;11.4;;
34146;SDS011;20423;49.448;9.056;2024-01-06T23:57:22;12.9;;;10.5;;
